AYPY/POM METAR and TAF weather

Enter ICAO airport designator
Station Type Date Time Source
AYPY METAR 2019/02/16 03:00 UTC NOAA

AYPY 160300Z 33010KT 9999 HZ SCT035 SCT050 31/24 Q1011 RMK


Station Type Date Time Source
AYPY Decoded METAR 2019/02/16 03:00 UTC NOAA

Moresby, Papua New Guinea (AYPY) 09-26S 147-13E 49M
Feb 15, 2019 - 10:00 PM EST / 2019.02.16 0300 UTC
Wind: from the NNW (330 degrees) at 12 MPH (10 KT):0
Visibility: greater than 7 mile(s):0
Sky conditions: partly cloudy
Weather: haze
Temperature: 87 F (31 C)
Heat index: 95.7 F (35.4 C):1
Dew Point: 75 F (24 C)
Relative Humidity: 66%
Pressure (altimeter): 29.85 in. Hg (1011 hPa)
ob: AYPY 160300Z 33010KT 9999 HZ SCT035 SCT050 31/24 Q1011 RMK
cycle: 3

Station Type Date Time Source
AYPY TAF 2019/02/15 18:18 UTC NOAA

TAF TAF AYPY 151601Z 1518/1618 00000KT 9999 SCT040 SCT150
FM152100 34005KT 9999 SCT040
FM152400 34008KT 9999 FEW018 SCT050


Example: see airport list